sensor_id;sensor_type;location;lat;lon;timestamp;temperature;humidity
49765;DHT22;35657;51.204;-4.130;2023-11-19T00:02:16;12.80;99.90
49765;DHT22;35657;51.204;-4.130;2023-11-19T00:04:42;12.80;99.90
49765;DHT22;35657;51.204;-4.130;2023-11-19T00:07:07;12.80;99.90
49765;DHT22;35657;51.204;-4.130;2023-11-19T00:09:35;12.80;99.90
49765;DHT22;35657;51.204;-4.130;2023-11-19T00:12:06;12.80;99.90
49765;DHT22;35657;51.204;-4.130;2023-11-19T00:14:32;12.90;99.90
49765;DHT22;35657;51.204;-4.130;2023-11-19T00:16:58;12.80;99.90
49765;DHT22;35657;51.204;-4.130;2023-11-19T00:19:23;12.80;99.90
49765;DHT22;35657;51.204;-4.130;2023-11-19T00:21:49;12.80;99.90
49765;DHT22;35657;51.204;-4.130;2023-11-19T00:24:14;12.80;99.90
49765;DHT22;35657;51.204;-4.130;2023-11-19T00:26:42;12.80;99.90
49765;DHT22;35657;51.204;-4.130;2023-11-19T00:29:07;12.80;99.90
49765;DHT22;35657;51.204;-4.130;2023-11-19T00:31:33;12.80;99.90
49765;DHT22;35657;51.204;-4.130;2023-11-19T00:33:58;12.70;99.90
49765;DHT22;35657;51.204;-4.130;2023-11-19T00:36:24;12.70;99.90
49765;DHT22;35657;51.204;-4.130;2023-11-19T00:38:50;12.80;99.90
49765;DHT22;35657;51.204;-4.130;2023-11-19T00:41:18;12.80;99.90
49765;DHT22;35657;51.204;-4.130;2023-11-19T00:43:43;12.80;99.90
49765;DHT22;35657;51.204;-4.130;2023-11-19T00:46:09;12.70;99.90
49765;DHT22;35657;51.204;-4.130;2023-11-19T00:48:36;12.70;99.90
49765;DHT22;35657;51.204;-4.130;2023-11-19T00:51:02;12.80;99.90
49765;DHT22;35657;51.204;-4.130;2023-11-19T00:53:29;12.80;99.90
49765;DHT22;35657;51.204;-4.130;2023-11-19T00:55:55;12.70;99.90
49765;DHT22;35657;51.204;-4.130;2023-11-19T00:58:20;12.80;99.90
49765;DHT22;35657;51.204;-4.130;2023-11-19T01:00:46;12.80;99.90
49765;DHT22;35657;51.204;-4.130;2023-11-19T01:03:12;12.70;99.90
49765;DHT22;35657;51.204;-4.130;2023-11-19T01:05:37;12.80;99.90
49765;DHT22;35657;51.204;-4.130;2023-11-19T01:08:03;12.80;99.90
49765;DHT22;35657;51.204;-4.130;2023-11-19T01:10:29;12.80;99.90
49765;DHT22;35657;51.204;-4.130;2023-11-19T01:12:55;12.80;99.90
49765;DHT22;35657;51.204;-4.130;2023-11-19T01:15:21;12.80;99.90
49765;DHT22;35657;51.204;-4.130;2023-11-19T01:17:46;12.80;99.90
49765;DHT22;35657;51.204;-4.130;2023-11-19T01:20:12;12.80;99.90
49765;DHT22;35657;51.204;-4.130;2023-11-19T01:22:38;12.80;99.90
49765;DHT22;35657;51.204;-4.130;2023-11-19T01:25:04;12.80;99.90
49765;DHT22;35657;51.204;-4.130;2023-11-19T01:27:30;12.80;99.90
49765;DHT22;35657;51.204;-4.130;2023-11-19T01:29:56;12.80;99.90
49765;DHT22;35657;51.204;-4.130;2023-11-19T01:32:22;12.80;99.90
49765;DHT22;35657;51.204;-4.130;2023-11-19T01:34:49;12.80;99.90
49765;DHT22;35657;51.204;-4.130;2023-11-19T01:37:15;12.80;99.90
49765;DHT22;35657;51.204;-4.130;2023-11-19T01:39:43;12.70;99.90
49765;DHT22;35657;51.204;-4.130;2023-11-19T01:42:09;12.80;99.90
49765;DHT22;35657;51.204;-4.130;2023-11-19T01:44:34;12.70;99.90
49765;DHT22;35657;51.204;-4.130;2023-11-19T01:47:00;12.70;99.90
49765;DHT22;35657;51.204;-4.130;2023-11-19T01:49:26;12.70;99.90
49765;DHT22;35657;51.204;-4.130;2023-11-19T01:51:52;12.70;99.90
49765;DHT22;35657;51.204;-4.130;2023-11-19T01:54:17;12.70;99.90
49765;DHT22;35657;51.204;-4.130;2023-11-19T01:56:43;12.70;99.90
49765;DHT22;35657;51.204;-4.130;2023-11-19T01:59:09;12.70;99.90
49765;DHT22;35657;51.204;-4.130;2023-11-19T02:01:35;12.70;99.90
49765;DHT22;35657;51.204;-4.130;2023-11-19T02:04:05;12.70;99.90
49765;DHT22;35657;51.204;-4.130;2023-11-19T02:06:31;12.70;99.90
49765;DHT22;35657;51.204;-4.130;2023-11-19T02:08:58;12.70;99.90
49765;DHT22;35657;51.204;-4.130;2023-11-19T02:11:23;12.70;99.90
49765;DHT22;35657;51.204;-4.130;2023-11-19T02:13:55;12.70;99.90
49765;DHT22;35657;51.204;-4.130;2023-11-19T02:16:21;12.70;99.90
49765;DHT22;35657;51.204;-4.130;2023-11-19T02:18:46;12.70;99.90
49765;DHT22;35657;51.204;-4.130;2023-11-19T02:21:13;12.70;99.90
49765;DHT22;35657;51.204;-4.130;2023-11-19T02:23:40;12.70;99.90
49765;DHT22;35657;51.204;-4.130;2023-11-19T02:26:19;12.70;99.90
49765;DHT22;35657;51.204;-4.130;2023-11-19T02:28:45;12.70;99.90
49765;DHT22;35657;51.204;-4.130;2023-11-19T02:31:11;12.70;99.90
49765;DHT22;35657;51.204;-4.130;2023-11-19T02:33:37;12.70;99.90
49765;DHT22;35657;51.204;-4.130;2023-11-19T02:36:03;12.70;99.90
49765;DHT22;35657;51.204;-4.130;2023-11-19T02:38:29;12.70;99.90
49765;DHT22;35657;51.204;-4.130;2023-11-19T02:40:56;12.70;99.90
49765;DHT22;35657;51.204;-4.130;2023-11-19T02:43:22;12.60;99.90
49765;DHT22;35657;51.204;-4.130;2023-11-19T02:45:48;12.60;99.90
49765;DHT22;35657;51.204;-4.130;2023-11-19T02:48:14;12.60;99.90
49765;DHT22;35657;51.204;-4.130;2023-11-19T02:50:42;12.50;99.90
49765;DHT22;35657;51.204;-4.130;2023-11-19T02:53:07;12.50;99.90
49765;DHT22;35657;51.204;-4.130;2023-11-19T02:55:33;12.50;99.90
49765;DHT22;35657;51.204;-4.130;2023-11-19T02:58:03;12.40;99.90
49765;DHT22;35657;51.204;-4.130;2023-11-19T03:00:34;12.40;99.90
49765;DHT22;35657;51.204;-4.130;2023-11-19T03:03:08;12.40;99.90
49765;DHT22;35657;51.204;-4.130;2023-11-19T03:05:47;12.40;99.90
49765;DHT22;35657;51.204;-4.130;2023-11-19T03:08:16;12.40;99.90
49765;DHT22;35657;51.204;-4.130;2023-11-19T03:10:42;12.40;99.90
49765;DHT22;35657;51.204;-4.130;2023-11-19T03:13:12;12.50;99.90
49765;DHT22;35657;51.204;-4.130;2023-11-19T03:15:41;12.40;99.90
49765;DHT22;35657;51.204;-4.130;2023-11-19T03:18:07;12.50;99.90
49765;DHT22;35657;51.204;-4.130;2023-11-19T03:20:33;12.50;99.90
49765;DHT22;35657;51.204;-4.130;2023-11-19T03:22:58;12.50;99.90
49765;DHT22;35657;51.204;-4.130;2023-11-19T03:25:25;12.40;99.90
49765;DHT22;35657;51.204;-4.130;2023-11-19T03:27:52;12.40;99.90
49765;DHT22;35657;51.204;-4.130;2023-11-19T03:30:18;12.50;99.90
49765;DHT22;35657;51.204;-4.130;2023-11-19T03:32:46;12.50;99.90
49765;DHT22;35657;51.204;-4.130;2023-11-19T03:35:12;12.40;99.90
49765;DHT22;35657;51.204;-4.130;2023-11-19T03:37:37;12.40;99.90
49765;DHT22;35657;51.204;-4.130;2023-11-19T03:40:05;12.50;99.90
49765;DHT22;35657;51.204;-4.130;2023-11-19T03:42:31;12.40;99.90
49765;DHT22;35657;51.204;-4.130;2023-11-19T03:44:59;12.40;99.90
49765;DHT22;35657;51.204;-4.130;2023-11-19T03:47:25;12.50;99.90
49765;DHT22;35657;51.204;-4.130;2023-11-19T03:49:50;12.40;99.90
49765;DHT22;35657;51.204;-4.130;2023-11-19T03:52:19;12.40;99.90
49765;DHT22;35657;51.204;-4.130;2023-11-19T03:54:45;12.40;99.90
49765;DHT22;35657;51.204;-4.130;2023-11-19T03:57:11;12.40;99.90
49765;DHT22;35657;51.204;-4.130;2023-11-19T03:59:37;12.40;99.90
49765;DHT22;35657;51.204;-4.130;2023-11-19T04:02:03;12.40;99.90
49765;DHT22;35657;51.204;-4.130;2023-11-19T04:04:28;12.40;99.90
49765;DHT22;35657;51.204;-4.130;2023-11-19T04:06:57;12.40;99.90
49765;DHT22;35657;51.204;-4.130;2023-11-19T04:09:23;12.40;99.90
49765;DHT22;35657;51.204;-4.130;2023-11-19T04:11:48;12.40;99.90
49765;DHT22;35657;51.204;-4.130;2023-11-19T04:14:14;12.40;99.90
49765;DHT22;35657;51.204;-4.130;2023-11-19T04:16:40;12.40;99.90
49765;DHT22;35657;51.204;-4.130;2023-11-19T04:19:06;12.40;99.90
49765;DHT22;35657;51.204;-4.130;2023-11-19T04:21:32;12.40;99.90
49765;DHT22;35657;51.204;-4.130;2023-11-19T04:23:57;12.40;99.90
49765;DHT22;35657;51.204;-4.130;2023-11-19T04:26:23;12.40;99.90
49765;DHT22;35657;51.204;-4.130;2023-11-19T04:28:51;12.40;99.90
49765;DHT22;35657;51.204;-4.130;2023-11-19T04:31:16;12.40;99.90
49765;DHT22;35657;51.204;-4.130;2023-11-19T04:33:42;12.40;99.90
49765;DHT22;35657;51.204;-4.130;2023-11-19T04:36:09;12.40;99.90
49765;DHT22;35657;51.204;-4.130;2023-11-19T04:38:34;12.40;99.90
49765;DHT22;35657;51.204;-4.130;2023-11-19T04:41:00;12.40;99.90
49765;DHT22;35657;51.204;-4.130;2023-11-19T04:43:25;12.40;99.90
49765;DHT22;35657;51.204;-4.130;2023-11-19T04:45:51;12.40;99.90
49765;DHT22;35657;51.204;-4.130;2023-11-19T04:48:17;12.40;99.90
49765;DHT22;35657;51.204;-4.130;2023-11-19T04:50:42;12.40;99.90
49765;DHT22;35657;51.204;-4.130;2023-11-19T04:53:08;12.40;99.90
49765;DHT22;35657;51.204;-4.130;2023-11-19T04:55:33;12.40;99.90
49765;DHT22;35657;51.204;-4.130;2023-11-19T04:57:59;12.40;99.90
49765;DHT22;35657;51.204;-4.130;2023-11-19T05:00:24;12.40;99.90
49765;DHT22;35657;51.204;-4.130;2023-11-19T05:02:51;12.30;99.90
49765;DHT22;35657;51.204;-4.130;2023-11-19T05:05:16;12.30;99.90
49765;DHT22;35657;51.204;-4.130;2023-11-19T05:07:42;12.30;99.90
49765;DHT22;35657;51.204;-4.130;2023-11-19T05:10:08;12.30;99.90
49765;DHT22;35657;51.204;-4.130;2023-11-19T05:12:34;12.30;99.90
49765;DHT22;35657;51.204;-4.130;2023-11-19T05:14:59;12.30;99.90
49765;DHT22;35657;51.204;-4.130;2023-11-19T05:17:25;12.30;99.90
49765;DHT22;35657;51.204;-4.130;2023-11-19T05:19:51;12.30;99.90
49765;DHT22;35657;51.204;-4.130;2023-11-19T05:22:16;12.30;99.90
49765;DHT22;35657;51.204;-4.130;2023-11-19T05:24:42;12.30;99.90
49765;DHT22;35657;51.204;-4.130;2023-11-19T05:27:08;12.30;99.90
49765;DHT22;35657;51.204;-4.130;2023-11-19T05:29:33;12.30;99.90
49765;DHT22;35657;51.204;-4.130;2023-11-19T05:31:59;12.30;99.90
49765;DHT22;35657;51.204;-4.130;2023-11-19T05:34:24;12.30;99.90
49765;DHT22;35657;51.204;-4.130;2023-11-19T05:36:50;12.30;99.90
49765;DHT22;35657;51.204;-4.130;2023-11-19T05:39:16;12.30;99.90
49765;DHT22;35657;51.204;-4.130;2023-11-19T05:41:42;12.30;99.90
49765;DHT22;35657;51.204;-4.130;2023-11-19T05:44:07;12.30;99.90
49765;DHT22;35657;51.204;-4.130;2023-11-19T05:46:33;12.30;99.90
49765;DHT22;35657;51.204;-4.130;2023-11-19T05:48:58;12.30;99.90
49765;DHT22;35657;51.204;-4.130;2023-11-19T05:51:24;12.30;99.90
49765;DHT22;35657;51.204;-4.130;2023-11-19T05:53:50;12.30;99.90
49765;DHT22;35657;51.204;-4.130;2023-11-19T05:56:16;12.30;99.90
49765;DHT22;35657;51.204;-4.130;2023-11-19T05:58:46;12.30;99.90
49765;DHT22;35657;51.204;-4.130;2023-11-19T06:01:14;12.30;99.90
49765;DHT22;35657;51.204;-4.130;2023-11-19T06:03:40;12.30;99.90
49765;DHT22;35657;51.204;-4.130;2023-11-19T06:06:05;12.30;99.90
49765;DHT22;35657;51.204;-4.130;2023-11-19T06:08:31;12.30;99.90
49765;DHT22;35657;51.204;-4.130;2023-11-19T06:10:57;12.30;99.90
49765;DHT22;35657;51.204;-4.130;2023-11-19T06:13:23;12.30;99.90
49765;DHT22;35657;51.204;-4.130;2023-11-19T06:15:49;12.30;99.90
49765;DHT22;35657;51.204;-4.130;2023-11-19T06:18:16;12.30;99.90
49765;DHT22;35657;51.204;-4.130;2023-11-19T06:20:41;12.30;99.90
49765;DHT22;35657;51.204;-4.130;2023-11-19T06:23:07;12.30;99.90
49765;DHT22;35657;51.204;-4.130;2023-11-19T06:25:33;12.30;99.90
49765;DHT22;35657;51.204;-4.130;2023-11-19T06:28:00;12.30;99.90
49765;DHT22;35657;51.204;-4.130;2023-11-19T06:30:26;12.30;99.90
49765;DHT22;35657;51.204;-4.130;2023-11-19T06:32:53;12.30;99.90
49765;DHT22;35657;51.204;-4.130;2023-11-19T06:35:19;12.30;99.90
49765;DHT22;35657;51.204;-4.130;2023-11-19T06:37:44;12.30;99.90
49765;DHT22;35657;51.204;-4.130;2023-11-19T06:40:10;12.30;99.90
49765;DHT22;35657;51.204;-4.130;2023-11-19T06:42:37;12.30;99.90
49765;DHT22;35657;51.204;-4.130;2023-11-19T06:45:04;12.30;99.90
49765;DHT22;35657;51.204;-4.130;2023-11-19T06:47:29;12.30;99.90
49765;DHT22;35657;51.204;-4.130;2023-11-19T06:49:55;12.30;99.90
49765;DHT22;35657;51.204;-4.130;2023-11-19T06:52:21;12.30;99.90
49765;DHT22;35657;51.204;-4.130;2023-11-19T06:54:47;12.30;99.90
49765;DHT22;35657;51.204;-4.130;2023-11-19T06:57:12;12.30;99.90
49765;DHT22;35657;51.204;-4.130;2023-11-19T06:59:38;12.30;99.90
49765;DHT22;35657;51.204;-4.130;2023-11-19T07:02:04;12.30;99.90
49765;DHT22;35657;51.204;-4.130;2023-11-19T07:04:32;12.30;99.90
49765;DHT22;35657;51.204;-4.130;2023-11-19T07:07:01;12.30;99.90
49765;DHT22;35657;51.204;-4.130;2023-11-19T07:09:26;12.30;99.90
49765;DHT22;35657;51.204;-4.130;2023-11-19T07:11:52;12.30;99.90
49765;DHT22;35657;51.204;-4.130;2023-11-19T07:14:18;12.30;99.90
49765;DHT22;35657;51.204;-4.130;2023-11-19T07:16:43;12.30;99.90
49765;DHT22;35657;51.204;-4.130;2023-11-19T07:19:09;12.30;99.90
49765;DHT22;35657;51.204;-4.130;2023-11-19T07:21:35;12.30;99.90
49765;DHT22;35657;51.204;-4.130;2023-11-19T07:24:04;12.30;99.90
49765;DHT22;35657;51.204;-4.130;2023-11-19T07:26:30;12.30;99.90
49765;DHT22;35657;51.204;-4.130;2023-11-19T07:28:57;12.30;99.90
49765;DHT22;35657;51.204;-4.130;2023-11-19T07:31:23;12.30;99.90
49765;DHT22;35657;51.204;-4.130;2023-11-19T07:33:49;12.30;99.90
49765;DHT22;35657;51.204;-4.130;2023-11-19T07:36:14;12.30;99.90
49765;DHT22;35657;51.204;-4.130;2023-11-19T07:38:40;12.30;99.90
49765;DHT22;35657;51.204;-4.130;2023-11-19T07:41:06;12.30;99.90
49765;DHT22;35657;51.204;-4.130;2023-11-19T07:43:32;12.30;99.90
49765;DHT22;35657;51.204;-4.130;2023-11-19T07:45:57;12.30;99.90
49765;DHT22;35657;51.204;-4.130;2023-11-19T07:48:27;12.30;99.90
49765;DHT22;35657;51.204;-4.130;2023-11-19T07:50:53;12.30;99.90
49765;DHT22;35657;51.204;-4.130;2023-11-19T07:53:19;12.30;99.90
49765;DHT22;35657;51.204;-4.130;2023-11-19T07:55:45;12.30;99.90
49765;DHT22;35657;51.204;-4.130;2023-11-19T07:58:10;12.30;99.90
49765;DHT22;35657;51.204;-4.130;2023-11-19T08:00:36;12.30;99.90
49765;DHT22;35657;51.204;-4.130;2023-11-19T08:03:03;12.30;99.90
49765;DHT22;35657;51.204;-4.130;2023-11-19T08:05:28;12.30;99.90
49765;DHT22;35657;51.204;-4.130;2023-11-19T08:07:54;12.30;99.90
49765;DHT22;35657;51.204;-4.130;2023-11-19T08:10:19;12.30;99.90
49765;DHT22;35657;51.204;-4.130;2023-11-19T08:12:45;12.30;99.90
49765;DHT22;35657;51.204;-4.130;2023-11-19T08:15:11;12.30;99.90
49765;DHT22;35657;51.204;-4.130;2023-11-19T08:17:37;12.30;99.90
49765;DHT22;35657;51.204;-4.130;2023-11-19T08:20:03;12.30;99.90
49765;DHT22;35657;51.204;-4.130;2023-11-19T08:22:30;12.30;99.90
49765;DHT22;35657;51.204;-4.130;2023-11-19T08:24:56;12.30;99.90
49765;DHT22;35657;51.204;-4.130;2023-11-19T08:27:22;12.30;99.90
49765;DHT22;35657;51.204;-4.130;2023-11-19T08:29:53;12.40;99.90
49765;DHT22;35657;51.204;-4.130;2023-11-19T08:32:20;12.40;99.90
49765;DHT22;35657;51.204;-4.130;2023-11-19T08:34:46;12.40;99.90
49765;DHT22;35657;51.204;-4.130;2023-11-19T08:37:12;12.40;99.90
49765;DHT22;35657;51.204;-4.130;2023-11-19T08:39:38;12.40;99.90
49765;DHT22;35657;51.204;-4.130;2023-11-19T08:42:04;12.40;99.90
49765;DHT22;35657;51.204;-4.130;2023-11-19T08:44:29;12.40;99.90
49765;DHT22;35657;51.204;-4.130;2023-11-19T08:46:55;12.50;99.90
49765;DHT22;35657;51.204;-4.130;2023-11-19T08:49:20;12.40;99.90
49765;DHT22;35657;51.204;-4.130;2023-11-19T08:51:46;12.50;99.90
49765;DHT22;35657;51.204;-4.130;2023-11-19T08:54:12;12.50;99.90
49765;DHT22;35657;51.204;-4.130;2023-11-19T08:56:38;12.50;99.90
49765;DHT22;35657;51.204;-4.130;2023-11-19T08:59:04;12.50;99.90
49765;DHT22;35657;51.204;-4.130;2023-11-19T09:01:32;12.50;99.90
49765;DHT22;35657;51.204;-4.130;2023-11-19T09:03:58;12.50;99.90
49765;DHT22;35657;51.204;-4.130;2023-11-19T09:06:23;12.50;99.90
49765;DHT22;35657;51.204;-4.130;2023-11-19T09:08:49;12.50;99.90
49765;DHT22;35657;51.204;-4.130;2023-11-19T09:11:14;12.50;99.90
49765;DHT22;35657;51.204;-4.130;2023-11-19T09:13:40;12.50;99.90
49765;DHT22;35657;51.204;-4.130;2023-11-19T09:16:05;12.50;99.90
49765;DHT22;35657;51.204;-4.130;2023-11-19T09:18:31;12.50;99.90
49765;DHT22;35657;51.204;-4.130;2023-11-19T09:20:57;12.60;99.90
49765;DHT22;35657;51.204;-4.130;2023-11-19T09:23:23;12.60;99.90
49765;DHT22;35657;51.204;-4.130;2023-11-19T09:25:50;12.60;99.90
49765;DHT22;35657;51.204;-4.130;2023-11-19T09:28:16;12.60;99.90
49765;DHT22;35657;51.204;-4.130;2023-11-19T09:30:41;12.60;99.90
49765;DHT22;35657;51.204;-4.130;2023-11-19T09:33:07;12.60;99.90
49765;DHT22;35657;51.204;-4.130;2023-11-19T09:35:33;12.60;99.90
49765;DHT22;35657;51.204;-4.130;2023-11-19T09:37:58;12.60;99.90
49765;DHT22;35657;51.204;-4.130;2023-11-19T09:40:24;12.60;99.90
49765;DHT22;35657;51.204;-4.130;2023-11-19T09:42:53;12.60;99.90
49765;DHT22;35657;51.204;-4.130;2023-11-19T09:45:20;12.60;99.90
49765;DHT22;35657;51.204;-4.130;2023-11-19T09:47:46;12.60;99.90
49765;DHT22;35657;51.204;-4.130;2023-11-19T09:50:18;12.60;99.90
49765;DHT22;35657;51.204;-4.130;2023-11-19T09:52:45;12.60;99.90
49765;DHT22;35657;51.204;-4.130;2023-11-19T09:55:11;12.70;99.90
49765;DHT22;35657;51.204;-4.130;2023-11-19T09:57:40;12.60;99.90
49765;DHT22;35657;51.204;-4.130;2023-11-19T10:00:07;12.70;99.90
49765;DHT22;35657;51.204;-4.130;2023-11-19T10:02:34;12.60;99.90
49765;DHT22;35657;51.204;-4.130;2023-11-19T10:05:06;12.70;99.90
49765;DHT22;35657;51.204;-4.130;2023-11-19T10:07:32;12.70;99.90
49765;DHT22;35657;51.204;-4.130;2023-11-19T10:10:00;12.70;99.90
49765;DHT22;35657;51.204;-4.130;2023-11-19T10:12:27;12.70;99.90
49765;DHT22;35657;51.204;-4.130;2023-11-19T10:14:53;12.70;99.90
49765;DHT22;35657;51.204;-4.130;2023-11-19T10:17:22;12.70;99.90
49765;DHT22;35657;51.204;-4.130;2023-11-19T10:19:54;12.80;99.90
49765;DHT22;35657;51.204;-4.130;2023-11-19T10:22:20;12.70;99.90
49765;DHT22;35657;51.204;-4.130;2023-11-19T10:24:45;12.70;99.90
49765;DHT22;35657;51.204;-4.130;2023-11-19T10:27:11;12.70;99.90
49765;DHT22;35657;51.204;-4.130;2023-11-19T10:29:37;12.80;99.90
49765;DHT22;35657;51.204;-4.130;2023-11-19T10:32:03;12.80;99.90
49765;DHT22;35657;51.204;-4.130;2023-11-19T10:34:29;12.80;99.90
49765;DHT22;35657;51.204;-4.130;2023-11-19T10:36:55;12.80;99.90
49765;DHT22;35657;51.204;-4.130;2023-11-19T10:39:21;12.80;99.90
49765;DHT22;35657;51.204;-4.130;2023-11-19T10:41:48;12.80;99.90
49765;DHT22;35657;51.204;-4.130;2023-11-19T10:44:29;12.80;99.90
49765;DHT22;35657;51.204;-4.130;2023-11-19T10:46:56;12.80;99.90
49765;DHT22;35657;51.204;-4.130;2023-11-19T10:49:21;12.70;99.90
49765;DHT22;35657;51.204;-4.130;2023-11-19T10:51:47;12.70;99.90
49765;DHT22;35657;51.204;-4.130;2023-11-19T10:54:13;12.70;99.90
49765;DHT22;35657;51.204;-4.130;2023-11-19T10:56:40;12.80;99.90
49765;DHT22;35657;51.204;-4.130;2023-11-19T10:59:06;12.70;99.90
49765;DHT22;35657;51.204;-4.130;2023-11-19T11:01:39;12.70;99.90
49765;DHT22;35657;51.204;-4.130;2023-11-19T11:04:06;12.70;99.90
49765;DHT22;35657;51.204;-4.130;2023-11-19T11:06:37;12.70;99.90
49765;DHT22;35657;51.204;-4.130;2023-11-19T11:09:03;12.70;99.90
49765;DHT22;35657;51.204;-4.130;2023-11-19T11:11:29;12.70;99.90
49765;DHT22;35657;51.204;-4.130;2023-11-19T11:13:55;12.70;99.90
49765;DHT22;35657;51.204;-4.130;2023-11-19T11:16:22;12.80;99.90
49765;DHT22;35657;51.204;-4.130;2023-11-19T11:18:49;12.70;99.90
49765;DHT22;35657;51.204;-4.130;2023-11-19T11:21:15;12.80;99.90
49765;DHT22;35657;51.204;-4.130;2023-11-19T11:29:02;12.80;99.90
49765;DHT22;35657;51.204;-4.130;2023-11-19T11:34:12;12.80;99.90
49765;DHT22;35657;51.204;-4.130;2023-11-19T11:36:46;12.80;99.90
49765;DHT22;35657;51.204;-4.130;2023-11-19T11:39:15;12.80;99.90
49765;DHT22;35657;51.204;-4.130;2023-11-19T11:41:41;12.80;99.90
49765;DHT22;35657;51.204;-4.130;2023-11-19T11:44:07;12.80;99.90
49765;DHT22;35657;51.204;-4.130;2023-11-19T11:49:03;12.80;99.90
49765;DHT22;35657;51.204;-4.130;2023-11-19T11:54:31;12.80;99.90
49765;DHT22;35657;51.204;-4.130;2023-11-19T11:57:02;12.80;99.90
49765;DHT22;35657;51.204;-4.130;2023-11-19T11:59:36;12.80;99.90
49765;DHT22;35657;51.204;-4.130;2023-11-19T12:02:02;12.80;99.90
49765;DHT22;35657;51.204;-4.130;2023-11-19T12:04:28;12.90;99.90
49765;DHT22;35657;51.204;-4.130;2023-11-19T12:07:06;12.90;99.90
49765;DHT22;35657;51.204;-4.130;2023-11-19T12:09:32;12.90;99.90
49765;DHT22;35657;51.204;-4.130;2023-11-19T12:20:07;12.90;99.90
49765;DHT22;35657;51.204;-4.130;2023-11-19T12:22:39;13.00;99.90
49765;DHT22;35657;51.204;-4.130;2023-11-19T12:25:05;13.00;99.90
49765;DHT22;35657;51.204;-4.130;2023-11-19T12:27:32;13.00;99.90
49765;DHT22;35657;51.204;-4.130;2023-11-19T12:29:59;13.00;99.90
49765;DHT22;35657;51.204;-4.130;2023-11-19T12:32:25;13.00;99.90
49765;DHT22;35657;51.204;-4.130;2023-11-19T12:34:50;12.90;99.90
49765;DHT22;35657;51.204;-4.130;2023-11-19T12:37:16;12.90;99.90
49765;DHT22;35657;51.204;-4.130;2023-11-19T12:39:42;13.00;99.90
49765;DHT22;35657;51.204;-4.130;2023-11-19T12:42:08;12.90;99.90
49765;DHT22;35657;51.204;-4.130;2023-11-19T12:44:34;12.90;99.90
49765;DHT22;35657;51.204;-4.130;2023-11-19T12:47:03;13.00;99.90
49765;DHT22;35657;51.204;-4.130;2023-11-19T12:49:29;13.00;99.90
49765;DHT22;35657;51.204;-4.130;2023-11-19T12:51:55;12.90;99.90
49765;DHT22;35657;51.204;-4.130;2023-11-19T12:54:31;12.90;99.90
49765;DHT22;35657;51.204;-4.130;2023-11-19T12:56:57;13.00;99.90
49765;DHT22;35657;51.204;-4.130;2023-11-19T12:59:22;12.90;99.90
49765;DHT22;35657;51.204;-4.130;2023-11-19T13:01:54;12.90;99.90
49765;DHT22;35657;51.204;-4.130;2023-11-19T13:04:20;12.90;99.90
49765;DHT22;35657;51.204;-4.130;2023-11-19T13:06:46;12.90;99.90
49765;DHT22;35657;51.204;-4.130;2023-11-19T13:09:27;12.80;99.90
49765;DHT22;35657;51.204;-4.130;2023-11-19T13:11:54;12.80;99.90
49765;DHT22;35657;51.204;-4.130;2023-11-19T13:14:20;12.80;99.90
49765;DHT22;35657;51.204;-4.130;2023-11-19T13:16:46;12.80;99.90
49765;DHT22;35657;51.204;-4.130;2023-11-19T13:19:12;12.80;99.90
49765;DHT22;35657;51.204;-4.130;2023-11-19T13:21:49;12.80;99.90
49765;DHT22;35657;51.204;-4.130;2023-11-19T13:24:15;12.80;99.90
49765;DHT22;35657;51.204;-4.130;2023-11-19T13:26:40;12.80;99.90
49765;DHT22;35657;51.204;-4.130;2023-11-19T13:29:11;12.80;99.90
49765;DHT22;35657;51.204;-4.130;2023-11-19T13:31:37;12.80;99.90
49765;DHT22;35657;51.204;-4.130;2023-11-19T13:34:03;12.80;99.90
49765;DHT22;35657;51.204;-4.130;2023-11-19T13:36:29;12.80;99.90
49765;DHT22;35657;51.204;-4.130;2023-11-19T13:38:55;12.80;99.90
49765;DHT22;35657;51.204;-4.130;2023-11-19T13:41:26;12.80;99.90
49765;DHT22;35657;51.204;-4.130;2023-11-19T13:43:52;12.80;99.90
49765;DHT22;35657;51.204;-4.130;2023-11-19T13:46:18;12.80;99.90
49765;DHT22;35657;51.204;-4.130;2023-11-19T13:48:44;12.80;99.90
49765;DHT22;35657;51.204;-4.130;2023-11-19T13:51:10;12.90;99.90
49765;DHT22;35657;51.204;-4.130;2023-11-19T13:53:35;12.80;99.90
49765;DHT22;35657;51.204;-4.130;2023-11-19T13:56:01;12.80;99.90
49765;DHT22;35657;51.204;-4.130;2023-11-19T13:58:27;12.80;99.90
49765;DHT22;35657;51.204;-4.130;2023-11-19T14:00:52;12.80;99.90
49765;DHT22;35657;51.204;-4.130;2023-11-19T14:03:18;12.80;99.90
49765;DHT22;35657;51.204;-4.130;2023-11-19T14:05:45;12.80;99.90
49765;DHT22;35657;51.204;-4.130;2023-11-19T14:08:10;12.80;99.90
49765;DHT22;35657;51.204;-4.130;2023-11-19T14:10:39;12.80;99.90
49765;DHT22;35657;51.204;-4.130;2023-11-19T14:13:08;12.80;99.90
49765;DHT22;35657;51.204;-4.130;2023-11-19T14:15:34;12.70;99.90
49765;DHT22;35657;51.204;-4.130;2023-11-19T14:18:00;12.70;99.90
49765;DHT22;35657;51.204;-4.130;2023-11-19T14:20:26;12.80;99.90
49765;DHT22;35657;51.204;-4.130;2023-11-19T14:22:52;12.80;99.90
49765;DHT22;35657;51.204;-4.130;2023-11-19T14:25:18;12.70;99.90
49765;DHT22;35657;51.204;-4.130;2023-11-19T14:27:43;12.70;99.90
49765;DHT22;35657;51.204;-4.130;2023-11-19T14:30:10;12.70;99.90
49765;DHT22;35657;51.204;-4.130;2023-11-19T14:32:39;12.70;99.90
49765;DHT22;35657;51.204;-4.130;2023-11-19T14:35:05;12.80;99.90
49765;DHT22;35657;51.204;-4.130;2023-11-19T14:37:31;12.70;99.90
49765;DHT22;35657;51.204;-4.130;2023-11-19T14:39:57;12.70;99.90
49765;DHT22;35657;51.204;-4.130;2023-11-19T14:42:26;12.80;99.90
49765;DHT22;35657;51.204;-4.130;2023-11-19T14:44:52;12.70;99.90
49765;DHT22;35657;51.204;-4.130;2023-11-19T14:47:21;12.80;99.90
49765;DHT22;35657;51.204;-4.130;2023-11-19T14:49:47;12.80;99.90
49765;DHT22;35657;51.204;-4.130;2023-11-19T14:52:12;12.80;99.90
49765;DHT22;35657;51.204;-4.130;2023-11-19T14:54:38;12.80;99.90
49765;DHT22;35657;51.204;-4.130;2023-11-19T14:57:04;12.80;99.90
49765;DHT22;35657;51.204;-4.130;2023-11-19T14:59:30;12.70;99.90
49765;DHT22;35657;51.204;-4.130;2023-11-19T15:01:55;12.80;99.90
49765;DHT22;35657;51.204;-4.130;2023-11-19T15:04:21;12.80;99.90
49765;DHT22;35657;51.204;-4.130;2023-11-19T15:06:46;12.80;99.90
49765;DHT22;35657;51.204;-4.130;2023-11-19T15:09:12;12.80;99.90
49765;DHT22;35657;51.204;-4.130;2023-11-19T15:11:43;12.80;99.90
49765;DHT22;35657;51.204;-4.130;2023-11-19T15:14:08;12.80;99.90
49765;DHT22;35657;51.204;-4.130;2023-11-19T15:16:34;12.80;99.90
49765;DHT22;35657;51.204;-4.130;2023-11-19T15:19:00;12.80;99.90
49765;DHT22;35657;51.204;-4.130;2023-11-19T15:21:28;12.80;99.90
49765;DHT22;35657;51.204;-4.130;2023-11-19T15:23:54;12.80;99.90
49765;DHT22;35657;51.204;-4.130;2023-11-19T15:26:20;12.80;99.90
49765;DHT22;35657;51.204;-4.130;2023-11-19T15:28:46;12.80;99.90
49765;DHT22;35657;51.204;-4.130;2023-11-19T15:31:12;12.80;99.90
49765;DHT22;35657;51.204;-4.130;2023-11-19T15:33:38;12.80;99.90